Time;durP1;ratioP1;P1;durP2;ratioP2;P2;SDS_P1;SDS_P2;PMS_P1;PMS_P2;Temp;Humidity;BMP_temperature;BMP_pressure;BME280_temperature;BME280_humidity;BME280_pressure;Samples;Min_cycle;Max_cycle;Signal;HPM_P1;HPM_P2
2022/04/01 00:00:38;;;;;;;10.90;5.22;;;;;;;2.92;100.00;99817.97;5069507;28;20048;-71
2022/04/01 00:03:06;;;;;;;15.07;7.00;;;;;;;2.96;100.00;99833.28;5076151;28;20500;-72
2022/04/01 00:05:33;;;;;;;18.05;8.65;;;;;;;2.94;100.00;99821.94;5074310;28;20052;-72
2022/04/01 00:08:00;;;;;;;14.38;7.00;;;;;;;2.86;100.00;99812.03;5070877;28;20138;-71
2022/04/01 00:10:28;;;;;;;15.38;8.65;;;;;;;2.94;100.00;99832.88;5069075;28;20049;-72
2022/04/01 00:12:55;;;;;;;10.23;4.35;;;;;;;2.95;100.00;99828.16;5073077;28;20048;-71
2022/04/01 00:15:22;;;;;;;15.95;8.15;;;;;;;2.97;100.00;99834.06;5069944;28;20083;-73
2022/04/01 00:17:48;;;;;;;15.40;8.15;;;;;;;2.90;100.00;99826.53;5080927;28;20080;-71
2022/04/01 00:20:18;;;;;;;8.35;3.70;;;;;;;2.90;100.00;99826.53;5079678;28;20131;-72
2022/04/01 00:22:46;;;;;;;11.45;5.28;;;;;;;2.88;100.00;99831.59;5074079;28;20164;-72
2022/04/01 00:25:14;;;;;;;15.15;6.65;;;;;;;2.88;100.00;99836.25;5076012;28;20542;-72
2022/04/01 00:27:41;;;;;;;16.58;8.35;;;;;;;2.89;100.00;99833.16;5076455;28;20135;-71
2022/04/01 00:30:08;;;;;;;15.05;7.57;;;;;;;2.88;100.00;99834.34;5077278;28;20563;-71
2022/04/01 00:32:35;;;;;;;14.45;7.15;;;;;;;2.88;100.00;99837.06;5077044;28;20136;-72
2022/04/01 00:35:02;;;;;;;12.43;5.85;;;;;;;2.87;100.00;99831.97;5070164;28;20075;-74
2022/04/01 00:37:29;;;;;;;12.40;6.68;;;;;;;2.89;100.00;99835.91;5079254;28;20564;-73
2022/04/01 00:39:55;;;;;;;6.53;3.58;;;;;;;2.88;100.00;99836.25;5074773;28;20079;-71
2022/04/01 00:42:23;;;;;;;16.92;7.25;;;;;;;2.83;100.00;99829.16;5070705;28;20048;-72
2022/04/01 00:44:49;;;;;;;16.38;8.48;;;;;;;2.87;100.00;99843.66;5080488;28;20078;-72
2022/04/01 00:47:18;;;;;;;13.57;6.82;;;;;;;2.85;100.00;99848.72;5071626;28;20072;-72
2022/04/01 00:49:46;;;;;;;14.40;7.85;;;;;;;2.84;100.00;99847.16;5079453;28;20048;-72
2022/04/01 00:52:19;;;;;;;13.15;6.50;;;;;;;2.82;100.00;99848.66;5073984;28;20101;-72
2022/04/01 00:54:46;;;;;;;17.45;8.23;;;;;;;2.80;100.00;99862.69;5077676;28;20052;-72
2022/04/01 00:57:14;;;;;;;14.68;7.05;;;;;;;2.77;100.00;99854.44;5083940;28;20571;-73
2022/04/01 00:59:42;;;;;;;18.35;8.23;;;;;;;2.78;100.00;99859.53;5084914;28;20078;-72
2022/04/01 01:02:09;;;;;;;10.10;4.22;;;;;;;2.78;100.00;99870.47;5071271;28;20105;-71
2022/04/01 01:04:37;;;;;;;14.38;4.72;;;;;;;2.80;100.00;99875.56;5077337;28;20123;-71
2022/04/01 01:07:04;;;;;;;10.32;4.95;;;;;;;2.78;100.00;99864.19;5074414;28;20048;-71
2022/04/01 01:09:37;;;;;;;14.02;5.82;;;;;;;2.76;100.00;99859.09;5079848;28;20083;-71
2022/04/01 01:12:06;;;;;;;12.02;5.47;;;;;;;2.78;100.00;99857.56;5067845;28;20060;-71
2022/04/01 01:14:36;;;;;;;11.35;6.03;;;;;;;2.77;100.00;99863.44;5068805;28;20064;-71
2022/04/01 01:17:06;;;;;;;18.45;7.57;;;;;;;2.74;100.00;99867.66;5069431;28;20545;-71
2022/04/01 01:19:32;;;;;;;15.43;7.20;;;;;;;2.73;100.00;99874.28;5073617;28;20897;-71
2022/04/01 01:22:00;;;;;;;13.57;6.43;;;;;;;2.75;100.00;99876.66;5072213;28;20087;-71
2022/04/01 01:24:31;;;;;;;15.48;7.88;;;;;;;2.75;100.00;99868.47;5080964;28;20090;-72
2022/04/01 01:26:59;;;;;;;13.93;6.97;;;;;;;2.78;100.00;99868.50;5067259;28;20056;-71
2022/04/01 01:29:30;;;;;;;11.90;5.20;;;;;;;2.78;100.00;99877.84;5069958;28;20152;-71
2022/04/01 01:32:01;;;;;;;8.88;4.50;;;;;;;2.77;100.00;99881.75;5069650;28;20138;-71
2022/04/01 01:34:29;;;;;;;4.93;1.98;;;;;;;2.74;100.00;99877.81;5079552;28;20134;-71
2022/04/01 01:36:56;;;;;;;10.85;5.55;;;;;;;2.73;100.00;99877.03;5084164;28;20140;-71
2022/04/01 01:39:23;;;;;;;11.25;5.63;;;;;;;2.71;100.00;99876.59;5080839;28;20104;-71
2022/04/01 01:41:50;;;;;;;4.60;3.10;;;;;;;2.70;100.00;99871.47;5066551;28;20072;-71
2022/04/01 01:44:18;;;;;;;5.18;2.78;;;;;;;2.67;100.00;99861.31;5079847;28;20504;-71
2022/04/01 01:46:44;;;;;;;6.97;3.88;;;;;;;2.68;100.00;99868.34;5079915;28;20486;-71
2022/04/01 01:49:11;;;;;;;10.48;4.88;;;;;;;2.69;100.00;99881.63;5079746;28;20061;-71
2022/04/01 01:57:21;;;;;;;12.93;5.00;;;;;;;2.62;100.00;99886.19;5068787;28;20075;-71
2022/04/01 01:59:48;;;;;;;12.05;5.07;;;;;;;2.62;100.00;99876.06;5067312;28;20754;-73
2022/04/01 02:02:15;;;;;;;9.50;4.18;;;;;;;2.60;100.00;99880.31;5066776;28;20538;-71
2022/04/01 02:04:42;;;;;;;11.07;5.13;;;;;;;2.61;100.00;99881.88;5082414;28;20082;-72
2022/04/01 02:07:10;;;;;;;8.40;2.63;;;;;;;2.57;100.00;99872.84;5078178;28;20066;-71
2022/04/01 02:09:38;;;;;;;10.07;5.03;;;;;;;2.62;100.00;99878.00;5077662;28;20476;-71
2022/04/01 02:12:05;;;;;;;11.48;5.43;;;;;;;2.57;100.00;99884.53;5070443;28;20055;-71
2022/04/01 02:14:32;;;;;;;7.47;3.90;;;;;;;2.56;100.00;99876.72;5070454;28;20067;-72
2022/04/01 02:16:58;;;;;;;7.97;4.25;;;;;;;2.52;100.00;99867.66;5073399;28;20136;-71
2022/04/01 02:19:25;;;;;;;12.68;5.82;;;;;;;2.56;100.00;99884.91;5083872;28;20048;-71
2022/04/01 02:21:53;;;;;;;6.88;3.40;;;;;;;2.53;100.00;99872.78;5080795;28;20048;-70
2022/04/01 02:24:22;;;;;;;9.55;4.40;;;;;;;2.58;100.00;99886.13;5084733;28;20044;-71
2022/04/01 02:26:49;;;;;;;12.07;5.43;;;;;;;2.54;100.00;99877.06;5072812;28;20060;-73
2022/04/01 02:29:19;;;;;;;10.98;5.05;;;;;;;2.57;100.00;99883.75;5073545;28;20054;-71
2022/04/01 02:31:50;;;;;;;12.13;5.55;;;;;;;2.55;100.00;99881.41;5070733;28;20050;-71
2022/04/01 02:34:23;;;;;;;11.48;5.07;;;;;;;2.56;100.00;99880.22;5086224;28;20058;-70
2022/04/01 02:36:50;;;;;;;8.95;4.30;;;;;;;2.55;100.00;99875.13;5079826;28;20052;-72
2022/04/01 02:39:16;;;;;;;10.50;4.75;;;;;;;2.56;100.00;99885.69;5085523;28;20085;-70
2022/04/01 02:41:43;;;;;;;7.00;3.50;;;;;;;2.45;100.00;99883.94;5070747;28;20110;-73
2022/04/01 02:44:12;;;;;;;10.98;5.88;;;;;;;2.49;100.00;99882.84;5082281;28;20131;-71
2022/04/01 02:46:41;;;;;;;10.55;4.55;;;;;;;2.49;100.00;99887.50;5084186;28;20063;-71
2022/04/01 02:49:11;;;;;;;5.35;2.72;;;;;;;2.42;100.00;99890.13;5072071;28;20058;-71
2022/04/01 02:51:40;;;;;;;6.90;3.53;;;;;;;2.44;100.00;99896.00;5072421;28;20105;-72
2022/04/01 02:54:07;;;;;;;9.73;4.45;;;;;;;2.46;100.00;99889.03;5082416;28;20052;-71
2022/04/01 02:56:37;;;;;;;6.70;3.53;;;;;;;2.43;100.00;99881.56;5078126;28;20079;-71
2022/04/01 02:59:08;;;;;;;9.95;4.38;;;;;;;2.45;100.00;99894.84;5071713;28;20052;-71
2022/04/01 03:01:38;;;;;;;6.95;2.88;;;;;;;2.44;100.00;99894.06;5069758;28;20515;-71
2022/04/01 03:04:09;;;;;;;6.45;3.90;;;;;;;2.42;100.00;99899.09;5088319;28;20138;-71
2022/04/01 03:06:45;;;;;;;6.63;3.30;;;;;;;2.36;100.00;99900.53;5087315;28;20135;-71
2022/04/01 03:09:12;;;;;;;8.00;4.05;;;;;;;2.38;100.00;99906.44;5088108;28;20074;-72
2022/04/01 03:11:39;;;;;;;4.90;2.40;;;;;;;2.34;100.00;99899.34;5083628;28;20466;-71
2022/04/01 03:14:08;;;;;;;7.22;3.67;;;;;;;2.35;100.00;99900.91;5079176;28;20131;-72
2022/04/01 03:16:37;;;;;;;6.93;4.00;;;;;;;2.36;100.00;99907.94;5081921;28;20094;-71
2022/04/01 03:19:08;;;;;;;10.48;4.68;;;;;;;2.30;100.00;99907.44;5089759;28;20048;-72
2022/04/01 03:21:36;;;;;;;5.47;2.72;;;;;;;2.35;100.00;99900.91;5078068;28;20109;-71
2022/04/01 03:24:03;;;;;;;11.40;4.93;;;;;;;2.34;100.00;99921.97;5088818;28;20063;-72
2022/04/01 03:26:30;;;;;;;9.77;3.92;;;;;;;2.33;100.00;99917.66;5078605;28;20044;-71
2022/04/01 03:28:59;;;;;;;6.15;3.10;;;;;;;2.23;100.00;99904.59;5076323;28;20489;-71
2022/04/01 03:31:26;;;;;;;6.82;3.55;;;;;;;2.33;100.00;99923.09;5069679;28;20055;-71
2022/04/01 03:33:52;;;;;;;9.60;5.03;;;;;;;2.33;100.00;99927.78;5072408;28;20048;-72
2022/04/01 03:36:19;;;;;;;4.28;2.92;;;;;;;2.24;100.00;99924.47;5084654;28;20082;-70
2022/04/01 03:38:46;;;;;;;8.43;4.22;;;;;;;2.26;100.00;99933.13;5081768;28;20407;-71
2022/04/01 03:41:13;;;;;;;10.23;4.35;;;;;;;2.25;100.00;99936.97;5071552;28;20048;-72
2022/04/01 03:43:40;;;;;;;6.53;3.47;;;;;;;2.21;100.00;99925.19;5079974;28;20143;-71
2022/04/01 03:46:10;;;;;;;5.10;3.15;;;;;;;2.23;100.00;99947.47;5080625;28;20048;-71
2022/04/01 03:48:42;;;;;;;5.55;3.35;;;;;;;2.18;100.00;99947.75;5083996;28;20057;-71
2022/04/01 03:51:11;;;;;;;6.65;3.25;;;;;;;2.19;100.00;99952.06;5070392;28;20121;-72
2022/04/01 03:53:40;;;;;;;9.35;4.60;;;;;;;2.22;100.00;99959.53;5071377;28;20572;-71
2022/04/01 03:56:07;;;;;;;8.23;4.05;;;;;;;2.20;100.00;99951.69;5073673;28;20140;-72
2022/04/01 03:58:35;;;;;;;4.47;2.88;;;;;;;2.14;100.00;99961.34;5075623;28;20438;-71
2022/04/01 04:01:03;;;;;;;8.60;3.95;;;;;;;2.16;100.00;99961.75;5086669;28;20481;-73
2022/04/01 04:03:31;;;;;;;6.90;3.47;;;;;;;2.15;100.00;99967.56;5076077;28;20487;-71
2022/04/01 04:05:58;;;;;;;7.20;2.97;;;;;;;2.10;100.00;99962.41;5090597;28;20048;-71
2022/04/01 04:08:26;;;;;;;8.73;4.75;;;;;;;2.13;100.00;99967.94;5084273;28;20044;-71
2022/04/01 04:10:53;;;;;;;8.27;3.72;;;;;;;2.15;100.00;99970.31;5071927;28;20055;-72
2022/04/01 04:13:25;;;;;;;6.50;3.22;;;;;;;2.12;100.00;99976.47;5068413;28;20518;-71
2022/04/01 04:16:24;;;;;;;5.70;3.00;;;;;;;2.11;100.00;99972.16;5087597;28;20122;-71
2022/04/01 04:19:18;;;;;;;13.38;3.53;;;;;;;2.14;100.00;99982.38;5071576;28;20059;-71
2022/04/01 04:22:11;;;;;;;11.70;5.30;;;;;;;2.12;100.00;99985.47;5071345;28;20598;-71
2022/04/01 04:25:10;;;;;;;9.73;4.75;;;;;;;2.15;100.00;99989.41;5081963;28;20052;-71
2022/04/01 04:27:51;;;;;;;8.73;4.13;;;;;;;2.15;100.00;99986.66;5063622;28;20135;-71
2022/04/01 04:30:18;;;;;;;9.02;4.68;;;;;;;2.16;100.00;99999.19;5072264;28;20087;-71
2022/04/01 04:32:55;;;;;;;10.05;4.70;;;;;;;2.16;100.00;99993.72;5069033;28;20550;-71
2022/04/01 04:35:22;;;;;;;12.02;4.70;;;;;;;2.12;100.00;99992.84;5075799;28;20139;-70
2022/04/01 04:37:53;;;;;;;8.30;3.63;;;;;;;2.14;100.00;99996.81;5079224;28;20489;-72
2022/04/01 04:40:21;;;;;;;12.35;5.40;;;;;;;2.14;100.00;100001.47;5082769;28;20062;-71
2022/04/01 04:42:48;;;;;;;6.72;3.33;;;;;;;2.10;100.00;99998.66;5069727;28;20155;-72
2022/04/01 04:45:19;;;;;;;11.90;5.32;;;;;;;2.15;100.00;100016.69;5081514;28;20043;-71
2022/04/01 04:47:47;;;;;;;9.65;5.25;;;;;;;2.11;100.00;100013.09;5088541;28;20131;-71
2022/04/01 04:50:18;;;;;;;7.38;3.00;;;;;;;2.13;100.00;100010.81;5074014;28;20140;-72
2022/04/01 04:52:49;;;;;;;5.47;2.88;;;;;;;2.14;100.00;100024.09;5070708;28;20087;-71
2022/04/01 04:55:17;;;;;;;9.85;4.70;;;;;;;2.11;100.00;100016.63;5069642;28;20159;-70
2022/04/01 04:57:46;;;;;;;7.97;3.72;;;;;;;2.15;100.00;100020.22;5068867;28;20460;-71
2022/04/01 05:00:19;;;;;;;5.70;3.50;;;;;;;2.10;100.00;100025.19;5068382;28;20231;-70
2022/04/01 05:03:23;;;;;;;5.82;2.75;;;;;;;2.14;100.00;100034.22;5068149;28;20106;-73
2022/04/01 05:05:56;;;;;;;6.22;2.72;;;;;;;2.13;100.00;100038.88;5076557;28;20132;-71
2022/04/01 05:09:08;;;;;;;9.77;5.25;;;;;;;2.12;100.00;100040.03;5082555;28;20066;-71
2022/04/01 05:11:53;;;;;;;10.57;4.60;;;;;;;2.11;100.00;100040.41;5068072;28;20484;-71
2022/04/01 05:14:38;;;;;;;10.95;5.25;;;;;;;2.13;100.00;100057.97;5076354;28;20131;-71
2022/04/01 05:17:07;;;;;;;10.45;4.53;;;;;;;2.10;100.00;100050.50;5077728;28;20131;-71
2022/04/01 05:19:36;;;;;;;10.60;5.03;;;;;;;2.14;100.00;100050.59;5079382;28;20409;-70
2022/04/01 05:22:03;;;;;;;14.07;5.03;;;;;;;2.13;100.00;100060.72;5072307;28;20040;-71
2022/04/01 05:24:49;;;;;;;10.73;5.15;;;;;;;2.17;100.00;100056.13;5081601;28;20080;-70
2022/04/01 05:27:24;;;;;;;9.93;4.95;;;;;;;2.16;100.00;100065.47;5069888;28;20050;-70
2022/04/01 05:30:13;;;;;;;12.10;5.85;;;;;;;2.16;100.00;100070.16;5069303;28;20598;-71
2022/04/01 05:32:57;;;;;;;6.20;3.03;;;;;;;2.15;100.00;100066.63;5067323;28;20630;-71
2022/04/01 05:35:27;;;;;;;8.85;4.35;;;;;;;2.13;100.00;100081.78;5072929;28;20051;-71
2022/04/01 05:37:55;;;;;;;10.65;5.07;;;;;;;2.11;100.00;100078.59;5081236;28;20056;-72
2022/04/01 05:40:22;;;;;;;9.77;3.83;;;;;;;2.09;100.00;100087.13;5076438;28;20071;-70
2022/04/01 05:42:51;;;;;;;5.40;2.88;;;;;;;2.10;100.00;100082.47;5073225;28;20055;-71
2022/04/01 05:45:19;;;;;;;5.47;2.63;;;;;;;2.14;100.00;100094.25;5082800;28;20135;-71
2022/04/01 05:47:47;;;;;;;5.95;3.35;;;;;;;2.09;100.00;100099.97;5084758;28;20080;-71
2022/04/01 05:50:18;;;;;;;10.98;5.13;;;;;;;2.08;100.00;100104.66;5074312;28;20056;-70
2022/04/01 05:52:49;;;;;;;2.53;1.67;;;;;;;2.09;100.00;100091.78;5075248;28;20139;-70
2022/04/01 05:55:19;;;;;;;13.43;5.05;;;;;;;2.08;100.00;100101.94;5069022;28;20048;-71
2022/04/01 05:57:46;;;;;;;11.23;5.65;;;;;;;2.08;100.00;100107.41;5072450;28;20491;-70
2022/04/01 06:00:13;;;;;;;13.55;6.68;;;;;;;2.05;100.00;100105.38;5080592;28;20194;-70
2022/04/01 06:02:54;;;;;;;14.27;6.00;;;;;;;2.09;100.00;100110.91;5067452;28;20048;-74
2022/04/01 06:06:04;;;;;;;11.20;5.95;;;;;;;2.05;100.00;100112.75;5076124;28;20063;-73
2022/04/01 06:08:55;;;;;;;10.35;4.55;;;;;;;2.06;100.00;100114.38;5065791;28;20048;-71
2022/04/01 06:11:40;;;;;;;9.45;4.60;;;;;;;2.08;100.00;100123.75;5072626;28;20048;-71
2022/04/01 06:14:31;;;;;;;15.00;5.30;;;;;;;2.13;100.00;100119.97;5067787;28;20055;-71
2022/04/01 06:17:08;;;;;;;8.43;3.67;;;;;;;2.11;100.00;100135.91;5072182;28;20052;-71
2022/04/01 06:19:43;;;;;;;9.70;4.22;;;;;;;2.10;100.00;100131.59;5083672;28;20075;-71
2022/04/01 06:22:20;;;;;;;11.55;5.22;;;;;;;2.10;100.00;100128.88;5077343;28;20140;-72
2022/04/01 06:24:50;;;;;;;5.70;2.78;;;;;;;2.10;100.00;100129.66;5080363;28;20083;-73
2022/04/01 06:27:33;;;;;;;13.07;6.13;;;;;;;2.16;100.00;100138.38;5077737;28;20049;-72
2022/04/01 06:30:06;;;;;;;12.73;5.10;;;;;;;2.16;100.00;100146.56;5069357;28;20139;-72
2022/04/01 06:32:40;;;;;;;11.80;4.97;;;;;;;2.18;100.00;100141.53;5070927;28;20520;-75
2022/04/01 06:35:14;;;;;;;11.23;5.03;;;;;;;2.19;100.00;100151.28;5070851;28;20431;-72
2022/04/01 06:37:49;;;;;;;9.43;5.00;;;;;;;2.13;100.00;100147.28;5081787;28;20123;-73
2022/04/01 06:40:18;;;;;;;;;;;;;;;2.18;100.00;100152.44;5077380;28;20057;-71
2022/04/01 06:42:45;;;;;;;11.30;4.93;;;;;;;2.18;100.00;100160.63;5073390;28;19924;-71
2022/04/01 06:45:15;;;;;;;11.15;5.15;;;;;;;2.17;100.00;100162.56;5079476;28;20044;-71
2022/04/01 06:47:44;;;;;;;10.20;4.75;;;;;;;2.16;100.00;100162.94;5085138;28;20139;-72
2022/04/01 06:50:12;;;;;;;11.77;5.47;;;;;;;2.20;100.00;100164.56;5076107;28;20044;-73
2022/04/01 06:52:40;;;;;;;11.93;5.40;;;;;;;2.19;100.00;100163.00;5072331;28;20546;-71
2022/04/01 06:55:08;;;;;;;10.35;4.07;;;;;;;2.20;100.00;100172.75;5078261;28;20159;-73
2022/04/01 06:57:35;;;;;;;7.88;3.83;;;;;;;2.20;100.00;100175.50;5074186;28;20054;-71
2022/04/01 07:00:08;;;;;;;7.50;3.40;;;;;;;2.21;100.00;100177.09;5085034;28;20138;-73
2022/04/01 07:02:35;;;;;;;10.32;4.72;;;;;;;2.22;100.00;100180.59;5080702;28;20047;-72
2022/04/01 07:05:02;;;;;;;12.35;5.82;;;;;;;2.23;100.00;100177.53;5079078;28;20470;-71
2022/04/01 07:07:29;;;;;;;12.00;5.38;;;;;;;2.23;100.00;100182.22;5078576;28;20686;-71
2022/04/01 07:09:56;;;;;;;5.63;3.00;;;;;;;2.20;100.00;100183.69;5082166;28;20503;-72
2022/04/01 07:12:23;;;;;;;8.18;3.95;;;;;;;2.25;100.00;100191.63;5085020;28;20098;-72
2022/04/01 07:14:50;;;;;;;8.13;3.67;;;;;;;2.22;100.00;100183.34;5072828;28;20052;-72
2022/04/01 07:17:17;;;;;;;11.38;5.72;;;;;;;2.27;100.00;100194.00;5073358;28;20068;-73
2022/04/01 07:19:43;;;;;;;6.05;3.00;;;;;;;2.23;100.00;100190.41;5081936;28;20067;-72
2022/04/01 07:22:10;;;;;;;8.57;3.80;;;;;;;2.26;100.00;100192.41;5079769;28;20125;-72
2022/04/01 07:24:37;;;;;;;9.07;3.50;;;;;;;2.31;100.00;100197.59;5076193;28;20113;-73
2022/04/01 07:27:04;;;;;;;4.25;2.28;;;;;;;2.29;100.00;100197.16;5076372;28;20056;-72
2022/04/01 07:29:30;;;;;;;7.95;3.83;;;;;;;2.30;100.00;100210.44;5076922;28;20072;-73
2022/04/01 07:34:44;;;;;;;5.93;3.38;;;;;;;2.34;100.00;100214.06;5080296;28;20515;-71
2022/04/01 07:37:11;;;;;;;9.05;3.58;;;;;;;2.33;100.00;100217.16;5084725;28;20511;-71
2022/04/01 07:39:38;;;;;;;3.10;2.05;;;;;;;2.36;100.00;100216.41;5088738;28;20051;-71
2022/04/01 07:42:05;;;;;;;9.10;2.70;;;;;;;2.32;100.00;100221.00;5073122;28;20472;-72
2022/04/01 07:44:32;;;;;;;9.98;4.82;;;;;;;2.29;100.00;100222.50;5082878;28;20139;-73
2022/04/01 07:47:00;;;;;;;8.63;3.58;;;;;;;2.34;100.00;100222.25;5081896;28;20074;-72
2022/04/01 07:49:27;;;;;;;11.35;4.63;;;;;;;2.33;100.00;100223.38;5076653;28;20507;-72
2022/04/01 07:52:14;;;;;;;10.23;3.63;;;;;;;2.35;100.00;100231.22;5072022;28;20393;-74
2022/04/01 07:54:48;;;;;;;7.50;3.45;;;;;;;2.32;100.00;100226.47;5074352;28;20607;-72
2022/04/01 07:57:15;;;;;;;5.70;3.28;;;;;;;2.30;100.00;100228.78;5069639;28;20649;-71
2022/04/01 07:59:42;;;;;;;9.27;4.18;;;;;;;2.36;100.00;100238.25;5070078;28;20572;-74
2022/04/01 08:02:09;;;;;;;8.60;3.80;;;;;;;2.36;100.00;100233.59;5072532;28;20044;-72
2022/04/01 08:04:36;;;;;;;10.57;5.20;;;;;;;2.42;100.00;100245.84;5065457;28;20470;-75
2022/04/01 08:07:07;;;;;;;8.00;3.05;;;;;;;2.43;100.00;100247.41;5059164;28;20045;-70
2022/04/01 08:09:35;;;;;;;8.93;4.28;;;;;;;2.44;100.00;100249.00;5073458;28;20138;-71
2022/04/01 08:12:02;;;;;;;7.78;2.88;;;;;;;2.43;100.00;100250.16;5074633;28;20052;-73
2022/04/01 08:14:29;;;;;;;12.57;5.20;;;;;;;2.44;100.00;100262.66;5071924;28;20401;-74
2022/04/01 08:16:56;;;;;;;8.35;4.13;;;;;;;2.40;100.00;100259.03;5074747;28;20056;-74
2022/04/01 08:19:23;;;;;;;9.50;3.88;;;;;;;2.40;100.00;100266.47;5076977;28;20059;-76
2022/04/01 08:21:49;;;;;;;2.72;1.50;;;;;;;2.44;100.00;100272.78;5079253;28;20048;-74
2022/04/01 08:24:16;;;;;;;11.85;5.00;;;;;;;2.45;100.00;100282.56;5080631;28;20087;-74
2022/04/01 08:26:43;;;;;;;6.05;3.15;;;;;;;2.42;100.00;100270.41;5076758;28;20094;-74
2022/04/01 08:29:10;;;;;;;8.65;4.10;;;;;;;2.50;100.00;100283.09;5086109;28;20043;-75
2022/04/01 08:31:37;;;;;;;14.75;5.60;;;;;;;2.48;100.00;100279.94;5081476;28;20067;-75
2022/04/01 08:34:05;;;;;;;13.27;4.20;;;;;;;2.50;100.00;100283.09;5083430;28;20140;-74
2022/04/01 08:36:31;;;;;;;10.23;3.65;;;;;;;2.48;100.00;100295.50;5084332;28;20886;-74
2022/04/01 08:38:58;;;;;;;8.18;4.07;;;;;;;2.44;100.00;100289.94;5079050;28;20059;-74
2022/04/01 08:41:24;;;;;;;4.68;2.58;;;;;;;2.43;100.00;100299.31;5072052;28;20098;-74
2022/04/01 08:43:52;;;;;;;11.25;4.82;;;;;;;2.48;100.00;100306.44;5077123;28;20079;-75
2022/04/01 08:46:22;;;;;;;4.03;2.25;;;;;;;2.44;100.00;100300.09;5080412;28;20043;-75
2022/04/01 08:48:51;;;;;;;9.18;4.32;;;;;;;2.43;100.00;100309.44;5094202;28;20129;-76
2022/04/01 08:51:17;;;;;;;4.40;2.65;;;;;;;2.50;100.00;100320.53;5068015;28;20052;-75
2022/04/01 08:53:47;;;;;;;12.77;5.50;;;;;;;2.52;100.00;100324.50;5070145;28;20583;-74
2022/04/01 08:56:17;;;;;;;7.30;3.63;;;;;;;2.53;100.00;100322.53;5067510;28;20058;-75
2022/04/01 08:58:44;;;;;;;10.95;4.32;;;;;;;2.56;100.00;100328.09;5067089;28;20118;-73
2022/04/01 09:01:13;;;;;;;7.70;3.25;;;;;;;2.52;100.00;100324.50;5064680;28;20149;-74
2022/04/01 09:03:41;;;;;;;10.80;2.85;;;;;;;2.56;100.00;100330.84;5061044;28;20491;-74
2022/04/01 09:06:08;;;;;;;3.17;1.98;;;;;;;2.56;100.00;100330.03;5079680;28;20140;-74
2022/04/01 09:08:37;;;;;;;12.90;5.22;;;;;;;2.59;100.00;100341.06;5085485;28;20139;-74
2022/04/01 09:11:17;;;;;;;7.60;3.22;;;;;;;2.54;100.00;100335.84;5066728;28;20064;-75
2022/04/01 09:13:43;;;;;;;12.57;5.60;;;;;;;2.61;100.00;100337.97;5073980;28;20047;-73
2022/04/01 09:16:25;;;;;;;6.03;2.92;;;;;;;2.60;100.00;100342.63;5073063;28;20076;-76
2022/04/01 09:18:54;;;;;;;10.60;4.10;;;;;;;2.65;100.00;100344.31;5088731;28;20063;-74
2022/04/01 09:21:26;;;;;;;8.90;3.97;;;;;;;2.76;100.00;100339.88;5069984;28;20132;-75
2022/04/01 09:23:52;;;;;;;15.82;5.22;;;;;;;2.77;100.00;100341.50;5078617;28;20056;-74
2022/04/01 09:26:22;;;;;;;5.88;2.67;;;;;;;2.86;100.00;100344.81;5069199;28;20090;-75
2022/04/01 09:28:52;;;;;;;16.10;6.25;;;;;;;2.90;100.00;100351.16;5080417;28;20080;-74
2022/04/01 09:31:30;;;;;;;8.25;4.03;;;;;;;2.92;100.00;100357.06;5071818;28;20101;-75
2022/04/01 09:34:10;;;;;;;6.32;3.05;;;;;;;2.99;100.00;100359.97;5068975;28;20048;-75
2022/04/01 09:36:39;;;;;;;3.67;2.05;;;;;;;3.00;100.00;100361.53;5081732;28;20120;-74
2022/04/01 09:39:16;;;;;;;14.38;4.82;;;;;;;3.05;100.00;100361.28;5081584;28;20150;-74
2022/04/01 09:41:48;;;;;;;8.68;4.30;;;;;;;3.03;100.00;100371.00;5073435;28;20105;-73
2022/04/01 09:44:27;;;;;;;10.88;4.55;;;;;;;3.05;100.00;100365.94;5082346;28;20051;-74
2022/04/01 09:47:01;;;;;;;9.52;3.53;;;;;;;3.11;100.00;100370.00;5076997;28;20143;-76
2022/04/01 09:49:39;;;;;;;12.60;5.00;;;;;;;3.11;100.00;100362.59;5076394;28;20048;-75
2022/04/01 09:52:08;;;;;;;9.82;4.65;;;;;;;3.17;100.00;100369.34;5085310;28;20431;-74
2022/04/01 09:54:48;;;;;;;10.50;3.58;;;;;;;3.14;100.00;100364.59;5084118;28;20142;-73
2022/04/01 09:57:16;;;;;;;9.95;4.63;;;;;;;3.23;100.00;100372.59;5082755;28;20048;-74
2022/04/01 09:59:44;;;;;;;12.80;5.20;;;;;;;3.28;100.00;100364.13;5068144;28;20159;-74
2022/04/01 10:02:10;;;;;;;9.45;4.60;;;;;;;3.35;100.00;100376.03;5068198;28;20040;-74
2022/04/01 10:04:37;;;;;;;11.20;4.63;;;;;;;3.37;100.00;100371.00;5085990;28;20056;-74
2022/04/01 10:07:04;;;;;;;6.55;3.15;;;;;;;3.41;100.00;100377.31;5074858;28;20083;-73
2022/04/01 10:09:31;;;;;;;6.88;3.15;;;;;;;3.36;100.00;100374.06;5077538;28;20104;-73
2022/04/01 10:12:23;;;;;;;4.43;2.58;;;;;;;3.33;100.00;100375.59;5074950;28;20074;-73
2022/04/01 10:14:54;;;;;;;10.02;4.82;;;;;;;3.33;100.00;100383.00;5070267;28;20048;-73
2022/04/01 10:17:29;;;;;;;9.65;4.22;;;;;;;3.26;100.00;100380.91;5069935;28;20048;-73
2022/04/01 10:19:58;;;;;;;8.77;2.65;;;;;;;3.28;100.00;100389.56;5074473;28;20091;-73
2022/04/01 10:22:25;;;;;;;8.98;4.18;;;;;;;3.24;100.00;100396.09;5073237;28;20104;-74
2022/04/01 10:25:03;;;;;;;4.25;2.60;;;;;;;3.16;100.00;100392.38;5079183;28;20044;-74
2022/04/01 10:27:37;;;;;;;8.52;3.92;;;;;;;3.09;100.00;100397.69;5072565;28;20515;-76
2022/04/01 10:30:06;;;;;;;4.95;2.78;;;;;;;3.07;100.00;100399.97;5069149;28;20047;-74
2022/04/01 10:32:35;;;;;;;6.18;3.35;;;;;;;3.02;100.00;100397.53;5075044;28;20048;-74
2022/04/01 10:35:10;;;;;;;12.52;4.65;;;;;;;3.05;100.00;100407.75;5072335;28;20078;-74
2022/04/01 10:37:36;;;;;;;13.63;4.20;;;;;;;3.03;100.00;100401.84;5078464;28;20508;-74
2022/04/01 10:40:16;;;;;;;9.13;3.55;;;;;;;2.95;100.00;100400.09;5064026;28;20052;-76
2022/04/01 10:42:46;;;;;;;11.85;4.93;;;;;;;2.98;100.00;100406.78;5072825;28;20050;-76
2022/04/01 10:45:16;;;;;;;10.43;4.50;;;;;;;3.03;100.00;100417.47;5080796;28;20090;-75
2022/04/01 10:53:38;;;;;;;9.38;4.35;;;;;;;2.93;100.00;100416.03;5075060;28;20423;-74
2022/04/01 10:56:26;;;;;;;13.50;5.57;;;;;;;2.92;100.00;100414.44;5072322;28;20059;-75
2022/04/01 10:59:08;;;;;;;12.57;5.43;;;;;;;2.93;100.00;100426.19;5071800;28;20048;-76
2022/04/01 11:01:38;;;;;;;11.43;5.30;;;;;;;2.87;100.00;100422.91;5083508;28;20155;-77
2022/04/01 11:04:08;;;;;;;12.98;4.20;;;;;;;2.84;100.00;100433.75;5081652;28;20060;-74
2022/04/01 11:07:03;;;;;;;8.82;3.97;;;;;;;2.78;100.00;100423.06;5089731;28;20036;-75
2022/04/01 11:09:32;;;;;;;9.52;5.05;;;;;;;2.80;100.00;100430.16;5071954;28;20070;-74
2022/04/01 11:12:14;;;;;;;15.13;6.25;;;;;;;2.78;100.00;100425.81;5069841;28;21292;-74
2022/04/01 11:14:56;;;;;;;11.30;5.80;;;;;;;2.86;100.00;100424.06;5079610;28;20393;-73
2022/04/01 11:17:25;;;;;;;13.27;6.03;;;;;;;2.88;100.00;100423.72;5077971;28;20107;-73
2022/04/01 11:20:09;;;;;;;12.88;5.82;;;;;;;2.91;100.00;100426.53;5076437;28;20066;-74
2022/04/01 11:22:45;;;;;;;15.03;6.30;;;;;;;2.97;100.00;100427.06;5075492;28;20052;-73
2022/04/01 11:25:33;;;;;;;11.82;5.50;;;;;;;2.95;100.00;100427.41;5081896;28;20293;-74
2022/04/01 11:28:14;;;;;;;10.50;4.68;;;;;;;2.89;100.00;100437.03;5071734;28;20052;-73
2022/04/01 11:30:44;;;;;;;10.20;4.30;;;;;;;2.89;100.00;100434.28;5075245;28;20056;-72
2022/04/01 11:33:17;;;;;;;13.07;5.90;;;;;;;2.98;100.00;100447.78;5083390;28;20135;-73
2022/04/01 11:35:46;;;;;;;11.60;5.60;;;;;;;3.02;100.00;100440.44;5078580;28;20086;-76
2022/04/01 11:38:15;;;;;;;15.30;5.38;;;;;;;2.98;100.00;100440.38;5089241;28;20113;-73
2022/04/01 11:40:45;;;;;;;14.93;6.78;;;;;;;2.98;100.00;100445.84;5078938;28;20048;-76
2022/04/01 11:43:13;;;;;;;11.23;4.90;;;;;;;2.98;100.00;100443.09;5070143;28;20160;-74
2022/04/01 11:45:43;;;;;;;13.43;6.57;;;;;;;3.00;100.00;100448.22;5081555;28;20137;-74
2022/04/01 11:48:28;;;;;;;13.73;5.40;;;;;;;2.99;100.00;100449.34;5074558;28;20564;-74
2022/04/01 11:51:04;;;;;;;12.20;5.50;;;;;;;3.01;100.00;100455.28;5082539;28;20438;-75
2022/04/01 11:53:35;;;;;;;14.82;5.63;;;;;;;2.96;100.00;100459.06;5081860;28;20132;-76
2022/04/01 11:56:05;;;;;;;15.38;6.45;;;;;;;3.01;100.00;100461.53;5069788;28;20102;-74